Time;durP1;ratioP1;P1;durP2;ratioP2;P2;SDS_P1;SDS_P2;PMS_P1;PMS_P2;Temp;Humidity;BMP_temperature;BMP_pressure;BME280_temperature;BME280_humidity;BME280_pressure;Samples;Min_cycle;Max_cycle;Signal;HPM_P1;HPM_P2
2022/07/14 00:00:53;;;;;;;2.28;0.80;;;17.60;99.90;;;;;;4955219;28;20256;-57
2022/07/14 00:03:19;;;;;;;2.50;0.90;;;17.50;99.90;;;;;;4950220;29;20216;-56
2022/07/14 00:05:45;;;;;;;5.38;0.90;;;17.50;99.90;;;;;;4952499;29;20667;-55
2022/07/14 00:08:11;;;;;;;3.45;1.08;;;17.40;99.90;;;;;;4954771;28;20275;-56
2022/07/14 00:10:37;;;;;;;5.60;1.00;;;17.30;99.90;;;;;;4954913;28;20551;-55
2022/07/14 00:13:02;;;;;;;4.38;0.93;;;17.30;99.90;;;;;;4955011;28;20295;-55
2022/07/14 00:15:29;;;;;;;2.95;0.75;;;17.30;99.90;;;;;;4954810;28;20180;-55
2022/07/14 00:17:56;;;;;;;3.45;0.70;;;17.20;99.90;;;;;;4955218;28;20268;-56
2022/07/14 00:20:22;;;;;;;5.13;1.10;;;17.10;99.90;;;;;;4954460;28;20553;-56
2022/07/14 00:22:48;;;;;;;2.40;0.80;;;17.00;99.90;;;;;;4954301;28;20219;-56
2022/07/14 00:25:14;;;;;;;1.75;0.70;;;17.10;99.90;;;;;;4954925;28;20196;-55
2022/07/14 00:27:40;;;;;;;4.43;1.00;;;17.10;99.90;;;;;;4954909;28;20199;-55
2022/07/14 00:30:06;;;;;;;4.57;0.80;;;17.00;99.90;;;;;;4954779;28;20259;-55
2022/07/14 00:32:36;;;;;;;1.73;0.63;;;17.00;99.90;;;;;;4955078;28;20169;-55
2022/07/14 00:35:05;;;;;;;2.90;0.82;;;18.40;99.90;;;;;;4954787;28;20260;-55
2022/07/14 00:37:30;;;;;;;1.90;0.90;;;16.90;99.90;;;;;;4954881;28;20212;-56
2022/07/14 00:39:56;;;;;;;3.08;0.80;;;16.80;99.90;;;;;;4954473;28;20238;-60
2022/07/14 00:42:32;;;;;;;1.25;0.60;;;16.70;99.90;;;;;;4954464;29;20699;-55
2022/07/14 00:44:59;;;;;;;4.70;1.00;;;16.70;99.90;;;;;;4954453;28;20519;-56
2022/07/14 00:47:25;;;;;;;4.38;0.85;;;16.60;99.90;;;;;;4954349;28;20184;-55
2022/07/14 00:49:55;;;;;;;1.85;0.70;;;16.50;99.90;;;;;;4953947;28;20601;-56
2022/07/14 00:52:23;;;;;;;2.28;0.88;;;16.50;99.90;;;;;;4953949;28;20271;-56
2022/07/14 00:54:48;;;;;;;2.38;0.98;;;16.40;99.90;;;;;;4953936;28;20191;-55
2022/07/14 00:57:15;;;;;;;4.32;0.70;;;16.30;99.90;;;;;;4954204;29;20176;-56
2022/07/14 00:59:40;;;;;;;3.22;0.95;;;16.40;99.90;;;;;;4953923;28;20204;-56
2022/07/14 01:02:06;;;;;;;2.95;0.93;;;16.30;99.90;;;;;;4953846;28;20212;-56
2022/07/14 01:04:32;;;;;;;11.13;1.10;;;16.20;99.90;;;;;;4953955;28;20172;-56
2022/07/14 01:06:58;;;;;;;2.67;0.80;;;16.20;99.90;;;;;;4953570;28;20648;-55
2022/07/14 01:09:24;;;;;;;3.70;0.80;;;16.10;99.90;;;;;;4953696;28;20191;-54
2022/07/14 01:11:49;;;;;;;9.13;0.80;;;16.00;99.90;;;;;;4953431;28;20184;-55
2022/07/14 01:14:15;;;;;;;3.03;0.70;;;15.90;99.90;;;;;;4953637;28;20251;-55
2022/07/14 01:16:41;;;;;;;4.07;0.90;;;15.90;99.90;;;;;;4953674;28;20557;-55
2022/07/14 01:19:07;;;;;;;2.78;0.80;;;15.80;99.90;;;;;;4953346;28;20173;-55
2022/07/14 01:21:33;;;;;;;3.22;0.80;;;15.80;99.90;;;;;;4953503;28;20711;-55
2022/07/14 01:23:59;;;;;;;3.78;0.90;;;15.80;99.90;;;;;;4953674;28;20177;-55
2022/07/14 01:26:24;;;;;;;4.80;1.08;;;15.70;99.90;;;;;;4953447;28;20259;-55
2022/07/14 01:28:50;;;;;;;3.95;0.88;;;15.70;99.90;;;;;;4952273;29;20644;-55
2022/07/14 01:31:16;;;;;;;6.72;0.95;;;15.60;99.90;;;;;;4953809;28;20184;-55
2022/07/14 01:33:42;;;;;;;3.17;0.95;;;15.50;99.90;;;;;;4953477;28;20857;-56
2022/07/14 01:36:08;;;;;;;4.45;0.95;;;15.50;99.90;;;;;;4953692;28;20175;-56
2022/07/14 01:38:34;;;;;;;2.83;1.00;;;15.50;99.90;;;;;;4953622;28;20191;-55
2022/07/14 01:40:59;;;;;;;1.67;0.70;;;15.40;99.90;;;;;;4953295;29;20208;-56
2022/07/14 01:43:25;;;;;;;1.30;0.75;;;15.40;99.90;;;;;;4953111;28;20282;-55
2022/07/14 01:45:51;;;;;;;2.60;1.00;;;15.40;99.90;;;;;;4953364;28;20190;-55
2022/07/14 01:48:17;;;;;;;2.78;0.80;;;15.40;99.90;;;;;;4953236;28;20188;-56
2022/07/14 01:50:42;;;;;;;2.63;0.70;;;15.30;99.90;;;;;;4953323;28;20192;-56
2022/07/14 01:53:08;;;;;;;1.98;0.60;;;15.30;99.90;;;;;;4952684;28;20165;-56
2022/07/14 01:55:34;;;;;;;2.15;0.88;;;15.30;99.90;;;;;;4952851;28;20236;-56
2022/07/14 01:58:00;;;;;;;5.13;0.90;;;15.20;99.90;;;;;;4953012;28;20223;-55
2022/07/14 02:00:26;;;;;;;2.05;0.80;;;15.10;99.90;;;;;;4952970;28;20275;-56
2022/07/14 02:02:51;;;;;;;4.63;1.13;;;15.10;99.90;;;;;;4952649;28;20355;-55
2022/07/14 02:05:17;;;;;;;2.05;0.85;;;15.00;99.90;;;;;;4952122;28;20172;-55
2022/07/14 02:07:44;;;;;;;1.92;0.85;;;14.90;99.90;;;;;;4952330;28;20180;-57
2022/07/14 02:12:54;;;;;;;1.15;0.55;;;14.90;99.90;;;;;;4952880;29;20184;-55
2022/07/14 02:15:19;;;;;;;2.50;0.80;;;14.90;99.90;;;;;;4952772;28;20185;-56
2022/07/14 02:17:45;;;;;;;4.00;1.00;;;14.80;99.90;;;;;;4952869;28;20183;-56
2022/07/14 02:20:11;;;;;;;2.28;0.77;;;14.80;99.90;;;;;;4952837;28;20208;-56
2022/07/14 02:22:37;;;;;;;2.33;0.80;;;14.80;99.90;;;;;;4953080;29;20695;-56
2022/07/14 02:25:04;;;;;;;2.83;0.82;;;14.80;99.90;;;;;;4952604;28;20180;-55
2022/07/14 02:27:29;;;;;;;2.70;0.90;;;14.80;99.90;;;;;;4952526;28;20212;-56
2022/07/14 02:29:55;;;;;;;3.30;0.75;;;14.80;99.90;;;;;;4952787;28;20236;-55
2022/07/14 02:32:21;;;;;;;5.30;0.95;;;15.00;99.90;;;;;;4952832;28;20181;-56
2022/07/14 02:34:47;;;;;;;3.15;1.00;;;14.80;99.90;;;;;;4952585;28;20188;-56
2022/07/14 02:37:14;;;;;;;9.52;1.05;;;14.80;99.90;;;;;;4952819;28;20177;-56
2022/07/14 02:39:40;;;;;;;4.07;1.08;;;14.70;99.90;;;;;;4952547;28;20180;-55
2022/07/14 02:45:27;;;;;;;3.78;1.00;;;14.80;99.90;;;;;;4952693;29;20284;-55
2022/07/14 02:47:53;;;;;;;1.58;0.68;;;14.60;99.90;;;;;;4952469;28;20263;-55
2022/07/14 02:50:19;;;;;;;3.67;0.98;;;14.60;99.90;;;;;;4952095;28;20181;-55
2022/07/14 02:52:45;;;;;;;3.55;0.93;;;14.50;99.90;;;;;;4947601;29;20656;-55
2022/07/14 02:55:12;;;;;;;3.50;0.98;;;14.50;99.90;;;;;;4952649;29;20180;-55
2022/07/14 02:57:38;;;;;;;4.57;1.00;;;14.50;99.90;;;;;;4952754;29;20184;-55
2022/07/14 03:00:06;;;;;;;4.32;0.77;;;14.40;99.90;;;;;;4951890;28;20188;-55
2022/07/14 03:02:32;;;;;;;3.85;1.05;;;14.30;99.90;;;;;;4952133;28;20691;-55
2022/07/14 03:04:58;;;;;;;2.50;1.00;;;14.30;99.90;;;;;;4951344;28;20184;-55
2022/07/14 03:07:24;;;;;;;4.70;1.15;;;14.20;99.90;;;;;;4952208;29;20544;-55
2022/07/14 03:09:50;;;;;;;2.53;1.00;;;14.30;99.90;;;;;;4952655;28;20179;-55
2022/07/14 03:12:16;;;;;;;2.28;0.90;;;14.20;99.90;;;;;;4952390;28;20606;-55
2022/07/14 03:14:42;;;;;;;5.05;1.10;;;14.20;99.90;;;;;;4950074;28;20235;-55
2022/07/14 03:17:08;;;;;;;4.82;0.93;;;14.20;99.90;;;;;;4954148;28;20184;-55
2022/07/14 03:19:34;;;;;;;5.47;1.00;;;14.20;99.90;;;;;;4955804;28;20357;-55
2022/07/14 03:22:00;;;;;;;1.88;0.90;;;14.20;99.90;;;;;;4955891;29;20776;-55
2022/07/14 03:24:26;;;;;;;3.40;1.02;;;14.10;99.90;;;;;;4955243;28;20649;-60
2022/07/14 03:26:51;;;;;;;1.70;0.80;;;14.10;99.90;;;;;;4954692;28;20225;-59
2022/07/14 03:29:17;;;;;;;4.40;1.10;;;14.10;99.90;;;;;;4955138;28;20204;-54
2022/07/14 03:31:43;;;;;;;1.17;0.80;;;14.00;99.90;;;;;;4955599;28;20181;-55
2022/07/14 03:34:10;;;;;;;2.78;1.02;;;14.00;99.90;;;;;;4954080;29;20312;-55
2022/07/14 03:36:36;;;;;;;8.32;1.00;;;14.00;99.90;;;;;;4955161;28;20177;-55
2022/07/14 03:39:03;;;;;;;3.40;1.05;;;13.90;99.90;;;;;;4955563;28;20195;-56
2022/07/14 03:41:29;;;;;;;1.40;0.77;;;13.90;99.90;;;;;;4955480;28;20600;-55
2022/07/14 03:43:55;;;;;;;2.97;1.13;;;13.90;99.90;;;;;;4955522;29;20200;-55
2022/07/14 03:46:21;;;;;;;2.63;0.80;;;13.90;99.90;;;;;;4955716;28;20674;-55
2022/07/14 03:48:47;;;;;;;4.32;1.00;;;13.90;99.90;;;;;;4955376;28;20183;-56
2022/07/14 03:51:13;;;;;;;2.17;1.02;;;13.90;99.90;;;;;;4955524;28;20177;-57
2022/07/14 03:53:39;;;;;;;6.55;1.20;;;13.90;99.90;;;;;;4955246;28;20181;-57
2022/07/14 03:56:05;;;;;;;2.65;0.98;;;13.90;99.90;;;;;;4955751;28;20251;-56
2022/07/14 03:58:30;;;;;;;4.45;0.95;;;13.80;99.90;;;;;;4955064;29;20719;-56
2022/07/14 04:00:56;;;;;;;3.17;1.00;;;13.20;99.90;;;;;;4955387;28;20551;-56
2022/07/14 04:03:22;;;;;;;3.33;1.05;;;13.80;99.90;;;;;;4954528;28;20213;-56
2022/07/14 04:05:48;;;;;;;4.50;1.20;;;13.60;99.90;;;;;;4955194;28;20165;-56
2022/07/14 04:08:14;;;;;;;3.35;0.80;;;13.70;99.90;;;;;;4955125;28;20272;-56
2022/07/14 04:10:40;;;;;;;3.25;1.27;;;13.60;99.90;;;;;;4955263;28;20259;-56
2022/07/14 04:13:06;;;;;;;2.92;0.93;;;13.60;99.90;;;;;;4954862;28;20255;-55
2022/07/14 04:15:32;;;;;;;3.70;1.10;;;15.10;99.90;;;;;;4951836;28;20650;-56
2022/07/14 04:17:58;;;;;;;5.68;1.48;;;13.40;99.90;;;;;;4954473;28;20183;-55
2022/07/14 04:20:25;;;;;;;5.22;1.10;;;13.30;99.90;;;;;;4954871;28;20251;-56
2022/07/14 04:22:51;;;;;;;4.35;1.15;;;13.20;99.90;;;;;;4954704;29;20216;-56
2022/07/14 04:25:17;;;;;;;2.83;0.95;;;13.20;99.90;;;;;;4954731;28;20180;-56
2022/07/14 04:27:44;;;;;;;2.58;1.17;;;13.10;99.90;;;;;;4954533;28;20200;-56
2022/07/14 04:30:12;;;;;;;6.15;1.00;;;13.10;99.90;;;;;;4953575;29;20169;-56
2022/07/14 04:32:38;;;;;;;3.63;1.02;;;13.10;99.90;;;;;;4954615;28;20184;-55
2022/07/14 04:35:04;;;;;;;4.60;1.05;;;13.20;99.90;;;;;;4954754;28;20208;-56
2022/07/14 04:37:30;;;;;;;2.45;1.23;;;13.10;99.90;;;;;;4954443;28;20184;-56
2022/07/14 04:39:57;;;;;;;2.15;1.00;;;13.20;99.90;;;;;;4954256;28;20272;-56
2022/07/14 04:42:23;;;;;;;3.70;1.33;;;13.20;99.90;;;;;;4953950;28;20212;-56
2022/07/14 04:44:51;;;;;;;4.53;1.00;;;13.30;99.90;;;;;;4954416;28;20188;-56
2022/07/14 04:47:17;;;;;;;6.38;1.38;;;13.30;99.90;;;;;;4954017;28;20280;-55
2022/07/14 04:52:27;;;;;;;3.08;1.08;;;13.50;99.90;;;;;;4954710;29;20259;-56
2022/07/14 04:54:53;;;;;;;5.40;1.20;;;13.50;99.90;;;;;;4954291;28;20632;-56
2022/07/14 04:57:20;;;;;;;2.80;1.10;;;13.50;99.90;;;;;;4954587;28;20179;-57
2022/07/14 04:59:46;;;;;;;4.40;1.00;;;13.50;99.90;;;;;;4953157;28;20250;-56
2022/07/14 05:02:12;;;;;;;2.70;1.30;;;13.50;99.90;;;;;;4946124;29;20212;-60
2022/07/14 05:04:38;;;;;;;4.57;1.27;;;13.50;99.90;;;;;;4953591;28;20205;-57
2022/07/14 05:07:04;;;;;;;5.65;1.05;;;13.50;99.90;;;;;;4953455;28;20188;-55
2022/07/14 05:09:33;;;;;;;4.15;1.25;;;13.60;99.90;;;;;;4953411;29;20188;-55
2022/07/14 05:12:01;;;;;;;4.53;1.25;;;13.60;99.90;;;;;;4953870;28;20255;-55
2022/07/14 05:14:28;;;;;;;4.75;1.17;;;13.70;99.90;;;;;;4953717;28;20706;-55
2022/07/14 05:16:55;;;;;;;6.57;1.55;;;13.70;99.90;;;;;;4953281;28;20189;-55
2022/07/14 05:19:21;;;;;;;4.88;1.33;;;13.80;99.90;;;;;;4953585;28;20180;-55
2022/07/14 05:21:47;;;;;;;4.18;1.20;;;13.90;99.90;;;;;;4953426;28;20210;-54
2022/07/14 05:24:13;;;;;;;3.45;1.20;;;13.90;99.90;;;;;;4953776;28;20676;-54
2022/07/14 05:26:39;;;;;;;3.95;1.30;;;13.90;99.90;;;;;;4953548;28;20172;-55
2022/07/14 05:29:05;;;;;;;4.97;1.48;;;13.90;99.90;;;;;;4953699;28;20176;-55
2022/07/14 05:31:31;;;;;;;6.88;1.15;;;13.90;99.90;;;;;;4954057;28;20187;-55
2022/07/14 05:33:57;;;;;;;3.83;1.40;;;13.90;99.90;;;;;;4953331;28;20235;-55
2022/07/14 05:36:24;;;;;;;8.98;1.60;;;13.90;99.90;;;;;;4953467;28;20180;-55
2022/07/14 05:38:51;;;;;;;6.43;1.52;;;13.90;99.90;;;;;;4952898;28;20176;-55
2022/07/14 05:41:19;;;;;;;3.78;1.50;;;14.00;99.90;;;;;;4953530;28;20187;-55
2022/07/14 05:43:46;;;;;;;5.60;1.45;;;14.00;99.90;;;;;;4953082;28;20185;-55
2022/07/14 05:46:12;;;;;;;5.95;1.50;;;14.10;99.90;;;;;;4953675;28;20235;-54
2022/07/14 05:48:38;;;;;;;9.98;2.13;;;14.10;99.90;;;;;;4952966;29;20276;-55
2022/07/14 05:51:14;;;;;;;6.80;1.50;;;14.20;99.90;;;;;;4952860;28;20640;-55
2022/07/14 05:53:42;;;;;;;5.05;1.90;;;14.30;99.90;;;;;;4952950;28;20269;-55
2022/07/14 05:56:10;;;;;;;8.35;1.70;;;14.40;99.90;;;;;;4953655;28;20185;-55
2022/07/14 05:58:36;;;;;;;4.53;1.30;;;14.60;99.90;;;;;;4953004;28;20176;-55
2022/07/14 06:01:03;;;;;;;6.00;1.50;;;14.60;99.90;;;;;;4953176;28;20195;-55
2022/07/14 06:03:35;;;;;;;4.32;1.50;;;14.60;99.90;;;;;;4952412;28;20212;-55
2022/07/14 06:06:09;;;;;;;5.18;1.45;;;14.90;99.90;;;;;;4952387;28;20263;-56
2022/07/14 06:08:36;;;;;;;3.92;1.08;;;14.80;99.90;;;;;;4953015;29;20241;-55
2022/07/14 06:11:02;;;;;;;5.25;1.17;;;14.90;99.90;;;;;;4952482;28;20267;-55
2022/07/14 06:13:30;;;;;;;2.40;1.02;;;15.00;99.90;;;;;;4952108;28;20226;-55
2022/07/14 06:15:57;;;;;;;6.90;1.15;;;15.10;99.90;;;;;;4950881;29;20543;-55
2022/07/14 06:18:24;;;;;;;5.88;3.40;;;15.30;99.90;;;;;;4952658;28;20208;-55
2022/07/14 06:20:51;;;;;;;3.28;1.30;;;15.30;99.90;;;;;;4952576;28;20187;-60
2022/07/14 06:23:17;;;;;;;5.10;1.48;;;15.40;99.90;;;;;;4953075;28;20271;-59
2022/07/14 06:25:42;;;;;;;7.13;1.35;;;15.40;99.90;;;;;;4951610;28;20210;-60
2022/07/14 06:28:08;;;;;;;5.50;1.20;;;15.50;99.90;;;;;;4952299;28;20187;-58
2022/07/14 06:30:35;;;;;;;3.33;0.98;;;15.60;99.90;;;;;;4951434;28;20628;-58
2022/07/14 06:33:01;;;;;;;5.95;1.17;;;15.70;99.90;;;;;;4949748;28;20227;-56
2022/07/14 06:35:27;;;;;;;6.32;1.05;;;15.70;99.90;;;;;;4952230;28;20259;-56
2022/07/14 06:37:54;;;;;;;6.53;1.20;;;15.80;99.90;;;;;;4951604;29;20271;-57
2022/07/14 06:40:21;;;;;;;5.85;1.13;;;15.90;99.90;;;;;;4952785;28;20187;-57
2022/07/14 06:42:48;;;;;;;6.45;1.40;;;16.00;99.90;;;;;;4952692;28;20251;-54
2022/07/14 06:45:14;;;;;;;10.20;1.38;;;16.00;99.90;;;;;;4952599;29;20173;-58
2022/07/14 06:47:42;;;;;;;4.35;1.20;;;16.10;99.90;;;;;;4952760;28;20200;-60
2022/07/14 06:50:09;;;;;;;7.00;1.20;;;16.20;99.90;;;;;;4952469;28;20165;-60
2022/07/14 06:52:35;;;;;;;4.78;1.00;;;16.20;99.90;;;;;;4955954;28;20652;-59
2022/07/14 06:55:03;;;;;;;8.13;1.80;;;16.30;99.90;;;;;;4956578;28;20176;-59
2022/07/14 06:57:29;;;;;;;3.95;1.17;;;16.30;99.90;;;;;;4955837;28;20200;-59
2022/07/14 06:59:55;;;;;;;6.38;1.25;;;16.40;99.90;;;;;;4956342;28;20176;-59
2022/07/14 07:02:22;;;;;;;3.90;1.30;;;16.50;99.90;;;;;;4955045;28;20251;-60
2022/07/14 07:06:43;;;;;;;3.33;1.17;;;16.50;99.90;;;;;;4955559;28;20183;-61
2022/07/14 07:07:34;;;;;;;4.85;1.23;;;16.60;99.90;;;;;;4955848;29;20551;-66
2022/07/14 07:10:01;;;;;;;5.00;1.10;;;16.70;99.90;;;;;;4956633;28;20184;-72
2022/07/14 07:12:28;;;;;;;7.57;1.27;;;16.80;99.90;;;;;;4956321;28;20172;-73
2022/07/14 07:14:54;;;;;;;4.47;1.10;;;16.80;99.90;;;;;;4956151;28;20256;-72
2022/07/14 07:17:20;;;;;;;4.75;0.93;;;17.00;99.90;;;;;;4956875;28;20172;-71
2022/07/14 07:19:46;;;;;;;2.63;1.10;;;16.30;99.90;;;;;;4955294;28;20191;-72
2022/07/14 07:22:11;;;;;;;5.25;0.90;;;17.90;99.90;;;;;;4957043;28;20216;-71
2022/07/14 07:24:37;;;;;;;6.18;1.00;;;17.10;99.90;;;;;;4955595;28;20172;-69
2022/07/14 07:27:04;;;;;;;6.40;1.20;;;17.20;99.90;;;;;;4954641;29;20208;-66
2022/07/14 07:29:30;;;;;;;2.50;0.90;;;17.30;99.90;;;;;;4956184;29;20173;-66
2022/07/14 07:31:56;;;;;;;3.60;1.00;;;17.30;99.90;;;;;;4956080;28;20631;-67
2022/07/14 07:34:21;;;;;;;5.55;1.40;;;17.50;99.90;;;;;;4955207;29;20232;-59
2022/07/14 07:36:47;;;;;;;4.43;1.00;;;17.50;99.90;;;;;;4960001;28;20177;-69
2022/07/14 07:39:13;;;;;;;8.07;1.23;;;17.60;99.90;;;;;;4973853;28;20175;-72
2022/07/14 07:41:40;;;;;;;3.92;1.08;;;17.60;99.90;;;;;;4968908;28;20185;-69
2022/07/14 07:44:06;;;;;;;9.63;1.40;;;17.70;99.90;;;;;;4958424;28;20651;-69
2022/07/14 07:46:32;;;;;;;2.50;0.93;;;17.70;99.90;;;;;;4957067;29;20195;-69
2022/07/14 07:48:58;;;;;;;3.53;1.13;;;17.80;99.90;;;;;;4957001;28;20181;-69
2022/07/14 07:51:24;;;;;;;4.10;1.08;;;17.90;99.90;;;;;;4955272;28;20601;-69
2022/07/14 07:53:50;;;;;;;5.38;1.13;;;17.90;99.90;;;;;;4955211;28;20259;-69
2022/07/14 07:56:15;;;;;;;3.63;1.15;;;17.80;99.90;;;;;;4955231;28;20169;-69
2022/07/14 07:58:41;;;;;;;3.03;0.98;;;17.80;99.90;;;;;;4955511;28;20180;-68
2022/07/14 08:01:08;;;;;;;4.35;1.15;;;17.80;99.90;;;;;;4955304;28;20247;-69
2022/07/14 08:03:34;;;;;;;2.63;1.00;;;17.80;99.90;;;;;;4954681;28;20260;-69
2022/07/14 08:06:00;;;;;;;7.38;1.15;;;17.90;99.90;;;;;;4955101;28;20177;-69
2022/07/14 08:08:26;;;;;;;6.65;1.30;;;18.00;99.90;;;;;;4954194;29;20593;-69
2022/07/14 08:10:52;;;;;;;5.10;1.20;;;18.10;99.90;;;;;;4955540;28;20252;-68
2022/07/14 08:13:18;;;;;;;3.47;1.25;;;18.20;99.90;;;;;;4955384;28;20219;-68
2022/07/14 08:15:44;;;;;;;4.50;1.20;;;18.20;99.90;;;;;;4955348;28;20173;-68
2022/07/14 08:18:10;;;;;;;8.50;1.38;;;18.40;99.90;;;;;;4955488;28;20522;-68
2022/07/14 08:20:36;;;;;;;4.65;0.93;;;18.40;99.90;;;;;;4953950;28;20175;-68
2022/07/14 08:23:02;;;;;;;3.58;1.00;;;18.60;99.90;;;;;;4954114;28;20208;-69
2022/07/14 08:25:28;;;;;;;3.00;1.25;;;18.70;99.90;;;;;;4953967;28;20655;-69
2022/07/14 08:27:54;;;;;;;5.13;1.10;;;18.80;99.90;;;;;;4953628;28;20181;-68
2022/07/14 08:30:21;;;;;;;4.05;0.95;;;19.00;99.90;;;;;;4953819;29;20545;-69
2022/07/14 08:32:49;;;;;;;5.30;1.00;;;19.10;99.90;;;;;;4953551;28;20664;-69
2022/07/14 08:35:17;;;;;;;9.40;1.30;;;19.20;99.90;;;;;;4954602;28;20177;-69
2022/07/14 08:37:43;;;;;;;3.28;1.05;;;19.20;99.90;;;;;;4955212;28;20169;-69
2022/07/14 08:40:14;;;;;;;9.98;1.35;;;19.40;99.90;;;;;;4954852;28;20632;-69
2022/07/14 08:42:46;;;;;;;5.40;1.30;;;19.70;99.90;;;;;;4954744;28;20204;-69
2022/07/14 08:45:14;;;;;;;4.80;1.45;;;20.10;99.90;;;;;;4954799;28;20172;-69
2022/07/14 08:47:41;;;;;;;1.98;1.08;;;20.20;99.90;;;;;;4953568;29;20196;-70
2022/07/14 08:50:10;;;;;;;6.38;1.20;;;20.80;99.90;;;;;;4954658;28;20184;-68
2022/07/14 08:52:39;;;;;;;3.97;1.30;;;21.10;99.90;;;;;;4954647;28;20188;-69
2022/07/14 08:55:10;;;;;;;3.63;1.35;;;21.30;99.90;;;;;;4954398;28;20173;-71
2022/07/14 08:57:37;;;;;;;3.92;1.10;;;21.90;99.90;;;;;;4954665;28;20193;-70
2022/07/14 09:00:08;;;;;;;2.60;1.20;;;22.20;99.90;;;;;;4954759;28;20172;-70
2022/07/14 09:02:34;;;;;;;7.65;1.50;;;22.30;99.90;;;;;;4954526;28;20302;-70
2022/07/14 09:05:00;;;;;;;4.03;0.90;;;22.50;99.90;;;;;;4954601;28;20263;-70
2022/07/14 09:07:35;;;;;;;4.60;1.10;;;23.00;99.90;;;;;;4954385;29;20647;-70
2022/07/14 09:10:11;;;;;;;6.85;1.20;;;23.30;99.90;;;;;;4954541;28;20248;-70
2022/07/14 09:12:38;;;;;;;2.83;1.10;;;23.40;99.90;;;;;;4954200;28;20176;-71
2022/07/14 09:17:59;;;;;;;6.38;1.40;;;23.70;99.90;;;;;;4953852;29;20271;-70
2022/07/14 09:20:28;;;;;;;3.17;1.30;;;23.90;99.90;;;;;;4953554;28;20186;-70
2022/07/14 09:22:56;;;;;;;3.72;1.25;;;23.60;99.90;;;;;;4953919;28;20212;-70
2022/07/14 09:25:23;;;;;;;6.32;1.25;;;23.60;99.90;;;;;;4953980;28;20176;-70
2022/07/14 09:27:50;;;;;;;4.57;1.75;;;23.60;99.90;;;;;;4953977;28;20592;-71
2022/07/14 09:30:16;;;;;;;2.45;1.08;;;23.40;99.90;;;;;;4953979;28;20176;-71
2022/07/14 09:32:57;;;;;;;4.28;1.20;;;23.40;99.90;;;;;;4953921;28;20612;-71
2022/07/14 09:35:36;;;;;;;3.10;1.25;;;23.50;99.90;;;;;;4953991;28;20176;-71
2022/07/14 09:38:17;;;;;;;2.95;1.33;;;23.20;99.90;;;;;;4954029;28;20219;-70
2022/07/14 09:40:44;;;;;;;4.45;1.50;;;23.50;99.90;;;;;;4953604;28;20191;-70
2022/07/14 09:43:13;;;;;;;9.07;1.70;;;23.80;99.90;;;;;;4953682;28;20683;-71
2022/07/14 09:45:44;;;;;;;5.45;1.25;;;23.60;99.90;;;;;;4953931;28;20185;-70
2022/07/14 09:48:11;;;;;;;9.70;1.38;;;23.70;99.90;;;;;;4953502;28;20512;-71
2022/07/14 09:50:47;;;;;;;7.85;1.60;;;24.20;99.90;;;;;;4953714;28;20172;-70
2022/07/14 09:53:21;;;;;;;4.40;1.45;;;24.00;99.90;;;;;;4953649;28;20544;-70
2022/07/14 09:56:04;;;;;;;7.80;1.67;;;24.20;99.90;;;;;;4953700;28;20191;-71
2022/07/14 09:58:44;;;;;;;4.93;1.60;;;24.80;99.90;;;;;;4952211;29;20234;-71
2022/07/14 10:01:12;;;;;;;4.82;1.67;;;25.20;99.90;;;;;;4953549;28;20183;-70
2022/07/14 10:03:40;;;;;;;8.95;1.42;;;24.60;99.90;;;;;;4953341;28;20216;-69
2022/07/14 10:06:06;;;;;;;5.55;1.20;;;23.50;99.90;;;;;;4953400;28;20176;-71
2022/07/14 10:08:40;;;;;;;4.53;1.52;;;23.30;99.90;;;;;;4953480;28;20184;-71
2022/07/14 10:11:06;;;;;;;3.83;1.48;;;23.90;99.90;;;;;;4953483;28;20207;-70
2022/07/14 10:13:32;;;;;;;5.50;1.40;;;23.90;99.90;;;;;;4953197;28;20216;-70
2022/07/14 10:15:59;;;;;;;5.30;1.88;;;23.90;99.90;;;;;;4953420;28;20176;-70
2022/07/14 10:18:27;;;;;;;5.57;1.42;;;24.20;99.90;;;;;;4953285;28;20230;-70
2022/07/14 10:20:57;;;;;;;5.45;1.35;;;24.60;99.90;;;;;;4953377;28;20187;-70
2022/07/14 10:23:25;;;;;;;3.08;1.35;;;24.70;99.90;;;;;;4953235;28;20208;-70
2022/07/14 10:25:53;;;;;;;5.15;1.33;;;24.70;99.90;;;;;;4952794;28;20179;-69
2022/07/14 10:28:20;;;;;;;5.18;1.35;;;25.00;99.90;;;;;;4953236;28;20180;-71
2022/07/14 10:31:04;;;;;;;5.57;1.20;;;24.60;99.90;;;;;;4953038;28;20169;-69
2022/07/14 10:33:45;;;;;;;2.63;1.20;;;23.80;99.90;;;;;;4953284;28;20176;-70
2022/07/14 10:36:15;;;;;;;8.25;1.30;;;23.00;99.90;;;;;;4953063;28;20208;-70
2022/07/14 10:39:05;;;;;;;5.32;1.25;;;23.30;99.90;;;;;;4952913;28;20183;-70
2022/07/14 10:42:14;;;;;;;4.65;1.35;;;23.40;99.90;;;;;;4952876;28;20235;-70
2022/07/14 10:44:45;;;;;;;5.35;1.20;;;23.50;99.90;;;;;;4952273;28;20179;-71
2022/07/14 10:47:13;;;;;;;3.83;1.25;;;24.30;99.90;;;;;;4952726;28;20176;-70
2022/07/14 10:50:08;;;;;;;4.13;1.42;;;24.50;99.90;;;;;;4952273;28;20226;-72
2022/07/14 10:52:37;;;;;;;4.65;1.35;;;25.20;99.90;;;;;;4952125;28;20188;-71
2022/07/14 10:55:21;;;;;;;5.57;1.13;;;25.70;99.90;;;;;;4952209;28;20192;-70
2022/07/14 10:58:20;;;;;;;4.38;1.17;;;25.80;99.90;;;;;;4952260;28;20267;-69
2022/07/14 11:00:55;;;;;;;4.43;1.20;;;26.50;99.90;;;;;;4945694;28;20177;-70
2022/07/14 11:03:39;;;;;;;4.03;1.40;;;26.50;99.90;;;;;;4965618;28;20306;-70
2022/07/14 11:06:08;;;;;;;4.80;1.30;;;26.10;99.90;;;;;;4952713;28;20180;-70
2022/07/14 11:08:42;;;;;;;5.90;1.73;;;24.90;99.90;;;;;;4952796;28;20184;-71
2022/07/14 11:11:19;;;;;;;4.90;1.35;;;24.70;99.90;;;;;;4952307;28;20175;-71
2022/07/14 11:14:00;;;;;;;3.72;1.40;;;24.50;99.90;;;;;;4952790;28;20232;-71
2022/07/14 11:16:44;;;;;;;4.78;1.20;;;24.30;99.90;;;;;;4951951;28;20678;-71
2022/07/14 11:19:28;;;;;;;7.05;1.40;;;24.90;99.90;;;;;;4952651;28;20265;-71
2022/07/14 11:22:14;;;;;;;2.70;1.23;;;25.10;99.90;;;;;;4952531;28;20200;-70
2022/07/14 11:25:01;;;;;;;5.45;1.10;;;24.80;99.90;;;;;;4952796;28;20260;-71
2022/07/14 11:27:48;;;;;;;5.63;1.40;;;24.30;99.90;;;;;;4951401;28;20187;-71
2022/07/14 11:30:18;;;;;;;2.92;1.17;;;24.30;99.90;;;;;;4950774;28;20259;-71
2022/07/14 11:32:44;;;;;;;4.47;1.58;;;25.30;99.90;;;;;;4950727;28;20168;-72
2022/07/14 11:38:34;;;;;;;6.75;1.20;;;26.20;99.90;;;;;;4952301;28;20180;-71
2022/07/14 11:41:02;;;;;;;7.75;1.20;;;25.60;99.90;;;;;;4954254;28;20204;-71
2022/07/14 11:43:31;;;;;;;9.73;1.40;;;25.10;99.90;;;;;;4955963;28;20538;-70
2022/07/14 11:46:01;;;;;;;7.32;1.48;;;26.30;99.90;;;;;;4956088;29;20169;-71
2022/07/14 11:48:32;;;;;;;8.27;1.65;;;27.20;99.90;;;;;;4956105;28;20307;-70
2022/07/14 11:51:09;;;;;;;5.97;1.55;;;25.80;99.90;;;;;;4956014;28;20229;-71
2022/07/14 11:53:37;;;;;;;6.70;1.58;;;26.50;99.90;;;;;;4955500;28;20214;-71
2022/07/14 11:56:06;;;;;;;8.65;1.52;;;26.80;99.90;;;;;;4955179;28;20180;-71
2022/07/14 11:58:33;;;;;;;5.15;1.48;;;27.30;99.90;;;;;;4956367;28;20278;-71
2022/07/14 12:01:01;;;;;;;3.20;1.17;;;27.50;99.90;;;;;;4955677;28;20240;-70
2022/07/14 12:03:27;;;;;;;5.35;1.50;;;27.50;99.90;;;;;;4956141;28;20218;-69
2022/07/14 12:05:55;;;;;;;5.20;1.60;;;27.30;99.90;;;;;;4955447;28;20169;-69
2022/07/14 12:08:26;;;;;;;4.07;1.30;;;27.60;99.90;;;;;;4954330;28;20239;-70
2022/07/14 12:10:52;;;;;;;4.88;1.50;;;27.80;99.90;;;;;;4955355;28;20243;-70
2022/07/14 12:13:19;;;;;;;6.75;1.33;;;28.80;99.90;;;;;;4954976;28;20684;-71
2022/07/14 12:15:46;;;;;;;9.93;1.70;;;29.10;99.90;;;;;;4953670;29;20177;-71
2022/07/14 12:18:13;;;;;;;4.53;1.10;;;29.70;99.90;;;;;;4954831;28;20187;-71
2022/07/14 12:20:45;;;;;;;9.68;1.90;;;29.90;99.90;;;;;;4955252;28;20224;-71
2022/07/14 12:23:14;;;;;;;4.55;1.42;;;30.00;99.90;;;;;;4955057;28;20212;-71
2022/07/14 12:25:44;;;;;;;6.78;1.23;;;30.40;99.90;;;;;;4954746;28;20185;-70
2022/07/14 12:28:13;;;;;;;4.28;1.35;;;29.20;99.90;;;;;;4955168;28;20164;-71
2022/07/14 12:30:51;;;;;;;7.65;1.38;;;29.00;99.90;;;;;;4954425;28;20179;-71
2022/07/14 12:33:39;;;;;;;6.97;1.75;;;29.50;99.90;;;;;;4954352;28;20260;-70
2022/07/14 12:36:12;;;;;;;3.42;1.10;;;29.60;99.90;;;;;;4953573;28;20188;-70
2022/07/14 12:38:39;;;;;;;6.55;1.30;;;29.50;99.90;;;;;;4952738;28;20227;-71
2022/07/14 12:41:06;;;;;;;3.88;1.17;;;29.00;99.90;;;;;;4952976;28;20177;-70
2022/07/14 12:43:37;;;;;;;4.43;1.27;;;29.10;99.90;;;;;;4952836;28;20533;-70
2022/07/14 12:46:17;;;;;;;7.22;1.35;;;29.00;99.90;;;;;;4938789;29;20165;-70
2022/07/14 12:48:49;;;;;;;8.98;1.27;;;29.10;99.90;;;;;;4950686;28;20218;-65
2022/07/14 12:51:32;;;;;;;3.42;1.10;;;28.30;99.90;;;;;;4954097;28;20176;-80
2022/07/14 12:54:30;;;;;;;3.05;1.27;;;28.90;99.90;;;;;;4954187;28;20182;-73
2022/07/14 12:56:56;;;;;;;4.93;1.38;;;29.10;99.90;;;;;;4954580;29;20194;-73
2022/07/14 12:59:29;;;;;;;4.75;1.35;;;29.70;99.90;;;;;;4953166;29;20711;-73
2022/07/14 13:02:07;;;;;;;11.70;1.75;;;29.60;99.90;;;;;;4954208;28;20686;-73
2022/07/14 13:04:45;;;;;;;5.28;1.30;;;29.80;99.90;;;;;;4967125;28;20187;-73
2022/07/14 13:07:19;;;;;;;3.35;1.25;;;29.80;99.90;;;;;;4954312;28;20177;-72